createdAt,value
2022-08-05T00:03:18.865Z,24.88
2022-08-05T00:07:01.556Z,24.90
2022-08-05T00:11:28.007Z,24.91
2022-08-05T00:15:54.470Z,24.85
2022-08-05T00:19:16.419Z,24.78
2022-08-05T00:23:12.797Z,24.78
2022-08-05T00:26:55.944Z,24.76
2022-08-05T00:30:41.194Z,24.77
2022-08-05T00:34:53.629Z,24.72
2022-08-05T00:38:33.787Z,24.62
2022-08-05T00:42:31.580Z,24.55
2022-08-05T00:46:16.542Z,24.51
2022-08-05T00:49:59.478Z,24.45
2022-08-05T00:54:00.466Z,24.33
2022-08-05T00:57:58.168Z,24.19
2022-08-05T01:01:48.733Z,24.05
2022-08-05T01:05:32.050Z,23.94
2022-08-05T01:09:19.821Z,23.84
2022-08-05T01:13:13.190Z,23.75
2022-08-05T01:17:07.187Z,23.67
2022-08-05T01:20:55.062Z,23.60
2022-08-05T01:24:48.843Z,23.48
2022-08-05T01:28:37.257Z,23.40
2022-08-05T01:32:24.791Z,23.39
2022-08-05T01:36:16.023Z,23.38
2022-08-05T01:39:59.877Z,23.36
2022-08-05T01:43:44.708Z,23.33
2022-08-05T01:47:39.631Z,23.31
2022-08-05T01:51:23.175Z,23.28
2022-08-05T01:55:08.690Z,23.28
2022-08-05T01:58:55.024Z,23.26
2022-08-05T02:02:46.453Z,23.23
2022-08-05T02:06:38.770Z,23.21
2022-08-05T02:10:28.362Z,23.12
2022-08-05T02:14:17.031Z,23.07
2022-08-05T02:18:33.210Z,23.06
2022-08-05T02:22:25.364Z,22.98
2022-08-05T02:26:11.887Z,22.92
2022-08-05T02:29:59.887Z,22.86
2022-08-05T02:33:48.412Z,22.82
2022-08-05T02:37:32.525Z,22.82
2022-08-05T02:41:17.873Z,22.84
2022-08-05T02:45:02.988Z,22.85
2022-08-05T02:48:49.102Z,22.82
2022-08-05T02:52:35.069Z,22.78
2022-08-05T02:56:18.980Z,22.71
2022-08-05T03:00:03.460Z,22.63
2022-08-05T03:04:02.733Z,22.56
2022-08-05T03:08:06.749Z,22.51
2022-08-05T03:12:08.907Z,22.47
2022-08-05T03:15:53.677Z,22.42
2022-08-05T03:19:38.728Z,22.37
2022-08-05T03:23:24.693Z,22.31
2022-08-05T03:27:07.639Z,22.27
2022-08-05T03:30:50.870Z,22.20
2022-08-05T03:34:35.460Z,22.13
2022-08-05T03:38:32.627Z,22.06
2022-08-05T03:42:16.210Z,22.05
2022-08-05T03:45:59.109Z,22.06
2022-08-05T03:49:52.136Z,22.11
2022-08-05T03:55:53.094Z,22.13
2022-08-05T03:57:43.008Z,22.16
2022-08-05T04:01:29.131Z,22.20
2022-08-05T04:05:17.365Z,22.23
2022-08-05T04:09:00.517Z,22.26
2022-08-05T04:16:32.296Z,22.31
2022-08-05T04:20:20.814Z,22.33
2022-08-05T04:24:09.028Z,22.36
2022-08-05T04:27:57.275Z,22.40
2022-08-05T04:31:41.002Z,22.37
2022-08-05T04:35:27.104Z,22.35
2022-08-05T04:39:33.524Z,22.26
2022-08-05T04:43:21.940Z,22.36
2022-08-05T04:47:09.154Z,22.43
2022-08-05T04:51:02.949Z,22.55
2022-08-05T04:54:52.863Z,22.70
2022-08-05T04:58:35.654Z,22.88
2022-08-05T05:02:36.894Z,23.11
2022-08-05T05:06:36.656Z,23.25
2022-08-05T05:10:24.923Z,23.46
2022-08-05T05:14:16.048Z,23.61
2022-08-05T05:17:59.216Z,23.71
2022-08-05T05:21:43.423Z,23.78
2022-08-05T05:25:33.047Z,23.96
2022-08-05T05:29:23.825Z,23.98
2022-08-05T05:33:24.049Z,24.12
2022-08-05T05:37:08.258Z,24.27
2022-08-05T05:40:51.868Z,24.48
2022-08-05T05:44:36.755Z,24.60
2022-08-05T05:48:20.605Z,24.74
2022-08-05T05:52:28.409Z,24.89
2022-08-05T05:56:14.134Z,25.01
2022-08-05T06:00:11.433Z,25.15
2022-08-05T06:04:02.056Z,25.18
2022-08-05T06:08:01.218Z,25.26
2022-08-05T06:11:58.969Z,25.25
2022-08-05T06:16:29.146Z,25.23
2022-08-05T06:19:45.673Z,25.25
2022-08-05T06:23:44.113Z,25.35
2022-08-05T06:28:09.142Z,25.35
2022-08-05T06:31:32.138Z,25.47
2022-08-05T06:36:02.906Z,25.52
2022-08-05T06:39:20.529Z,25.70
2022-08-05T06:43:04.687Z,25.80
2022-08-05T06:46:47.436Z,26.05
2022-08-05T06:50:33.749Z,26.17
2022-08-05T06:54:18.968Z,26.31
2022-08-05T06:58:29.593Z,26.28
2022-08-05T07:02:06.215Z,26.41
2022-08-05T07:05:48.998Z,26.40
2022-08-05T07:09:32.547Z,26.35
2022-08-05T07:13:59.720Z,26.32
2022-08-05T07:17:59.876Z,26.28
2022-08-05T07:21:45.807Z,26.24
2022-08-05T07:25:54.930Z,26.15
2022-08-05T07:30:30.128Z,26.20
2022-08-05T07:33:44.399Z,26.24
2022-08-05T07:37:36.009Z,26.23
2022-08-05T07:42:13.955Z,26.27
2022-08-05T07:45:56.516Z,26.25
2022-08-05T07:49:29.882Z,26.16
2022-08-05T07:53:13.314Z,26.09
2022-08-05T07:57:02.057Z,26.03
2022-08-05T08:00:59.277Z,25.91
2022-08-05T08:04:42.550Z,25.88
2022-08-05T08:08:27.680Z,25.92
2022-08-05T08:12:27.225Z,25.94
2022-08-05T08:16:35.578Z,26.00
2022-08-05T08:20:44.175Z,25.99
2022-08-05T08:24:21.485Z,25.89
2022-08-05T08:28:35.778Z,25.94
2022-08-05T08:32:27.903Z,26.05
2022-08-05T08:36:38.618Z,26.16
2022-08-05T08:40:13.960Z,25.92
2022-08-05T08:45:16.775Z,25.77
2022-08-05T08:48:12.670Z,25.73
2022-08-05T08:52:14.473Z,25.74
2022-08-05T08:56:04.713Z,25.69
2022-08-05T08:59:48.940Z,25.61
2022-08-05T09:03:40.483Z,25.54
2022-08-05T09:07:28.860Z,25.71
2022-08-05T09:11:13.966Z,25.78
2022-08-05T09:15:06.180Z,25.89
2022-08-05T09:18:50.709Z,25.96
2022-08-05T09:23:09.477Z,26.08
2022-08-05T09:26:53.644Z,26.21
2022-08-05T09:30:36.511Z,26.43
2022-08-05T09:34:23.106Z,26.51
2022-08-05T09:38:12.310Z,26.60
2022-08-05T09:42:01.873Z,26.65
2022-08-05T09:46:06.152Z,26.78
2022-08-05T09:50:00.799Z,26.86
2022-08-05T09:53:53.772Z,26.92
2022-08-05T09:57:39.970Z,27.04
2022-08-05T10:01:31.769Z,27.03
2022-08-05T10:05:18.128Z,27.01
2022-08-05T10:09:27.606Z,26.98
2022-08-05T10:13:11.485Z,26.97
2022-08-05T10:16:58.844Z,27.03
2022-08-05T10:20:47.712Z,26.99
2022-08-05T10:24:33.384Z,27.02
2022-08-05T10:28:29.656Z,27.12
2022-08-05T10:33:01.707Z,27.19
2022-08-05T10:36:18.181Z,27.42
2022-08-05T10:40:18.510Z,27.51
2022-08-05T10:44:06.370Z,27.54
2022-08-05T10:48:30.341Z,27.63
2022-08-05T10:52:00.324Z,27.69
2022-08-05T10:56:11.141Z,27.70
2022-08-05T11:00:18.631Z,27.80
2022-08-05T11:04:08.182Z,27.82
2022-08-05T11:08:21.672Z,28.08
2022-08-05T11:12:06.829Z,28.28
2022-08-05T11:16:47.853Z,28.41
2022-08-05T11:20:38.989Z,28.62
2022-08-05T11:24:29.969Z,28.86
2022-08-05T11:28:39.060Z,28.84
2022-08-05T11:32:27.630Z,28.87
2022-08-05T11:36:11.581Z,29.12
2022-08-05T11:40:02.912Z,28.90
2022-08-05T11:44:04.819Z,28.82
2022-08-05T11:47:50.580Z,29.00
2022-08-05T11:51:44.320Z,29.31
2022-08-05T11:55:36.467Z,29.54
2022-08-05T11:59:21.447Z,29.74
2022-08-05T12:03:28.610Z,29.91
2022-08-05T12:07:14.239Z,30.05
2022-08-05T12:11:00.374Z,30.00
2022-08-05T12:14:48.578Z,29.95
2022-08-05T12:18:34.808Z,29.80
2022-08-05T12:22:23.728Z,29.79
2022-08-05T12:26:07.984Z,29.92
2022-08-05T12:30:03.300Z,29.96
2022-08-05T12:33:46.584Z,29.89
2022-08-05T12:37:29.867Z,29.81
2022-08-05T12:41:16.123Z,29.70
2022-08-05T12:45:09.407Z,29.86
2022-08-05T12:49:05.697Z,30.10
2022-08-05T12:52:59.427Z,30.40
2022-08-05T12:56:45.155Z,30.53
2022-08-05T13:01:59.859Z,30.61
2022-08-05T13:04:34.346Z,30.73
2022-08-05T13:08:26.992Z,30.77
2022-08-05T13:12:16.214Z,30.78
2022-08-05T13:16:00.035Z,30.67
2022-08-05T13:19:52.196Z,30.75
2022-08-05T13:23:35.741Z,30.77
2022-08-05T13:27:37.489Z,30.80
2022-08-05T13:32:03.486Z,30.87
2022-08-05T13:35:43.118Z,31.03
2022-08-05T13:40:15.774Z,31.38
2022-08-05T13:43:45.098Z,31.62
2022-08-05T13:48:08.463Z,31.90
2022-08-05T13:51:41.659Z,32.07
2022-08-05T13:55:41.247Z,32.13
2022-08-05T13:59:27.304Z,32.11
2022-08-05T14:03:10.921Z,32.21
2022-08-05T14:07:11.905Z,32.27
2022-08-05T14:10:59.728Z,32.44
2022-08-05T14:14:53.552Z,32.51
2022-08-05T14:18:36.291Z,32.83
2022-08-05T14:22:21.477Z,33.06
2022-08-05T14:26:04.907Z,33.15
2022-08-05T14:29:51.360Z,33.52
2022-08-05T14:33:59.755Z,33.84
2022-08-05T14:37:48.185Z,34.26
2022-08-05T14:41:32.779Z,34.53
2022-08-05T14:45:15.504Z,34.54
2022-08-05T14:49:06.225Z,35.08
2022-08-05T14:52:53.396Z,35.61
2022-08-05T14:56:44.202Z,36.14
2022-08-05T15:00:29.574Z,36.59
2022-08-05T15:04:13.710Z,37.57
2022-08-05T15:08:05.719Z,38.09
2022-08-05T15:11:55.422Z,39.00
2022-08-05T15:15:55.542Z,40.12
2022-08-05T15:19:40.534Z,40.90
2022-08-05T15:23:31.749Z,40.43
2022-08-05T15:27:15.713Z,40.40
2022-08-05T15:31:03.661Z,39.15
2022-08-05T15:34:49.879Z,37.90
2022-08-05T15:38:40.779Z,37.39
2022-08-05T15:42:50.349Z,38.27
2022-08-05T15:46:27.104Z,38.40
2022-08-05T15:50:15.358Z,38.56
2022-08-05T15:53:58.968Z,38.83
2022-08-05T15:57:42.452Z,38.66
2022-08-05T16:01:29.459Z,38.64
2022-08-05T16:05:28.337Z,38.52
2022-08-05T16:09:14.565Z,37.85
2022-08-05T16:12:57.473Z,37.27
2022-08-05T16:16:40.379Z,36.65
2022-08-05T16:20:24.542Z,35.75
2022-08-05T16:24:07.745Z,34.85
2022-08-05T16:28:10.627Z,34.07
2022-08-05T16:31:56.671Z,33.24
2022-08-05T16:35:42.457Z,32.71
2022-08-05T16:40:04.841Z,32.33
2022-08-05T16:43:31.877Z,32.02
2022-08-05T16:47:28.631Z,31.85
2022-08-05T16:51:18.905Z,31.66
2022-08-05T16:55:04.314Z,31.42
2022-08-05T16:58:47.249Z,31.22
2022-08-05T17:02:30.109Z,31.02
2022-08-05T17:06:13.016Z,30.74
2022-08-05T17:10:00.862Z,30.57
2022-08-05T17:13:45.771Z,30.39
2022-08-05T17:18:02.306Z,30.35
2022-08-05T17:21:36.911Z,30.29
2022-08-05T17:25:33.503Z,30.14
2022-08-05T17:29:33.339Z,30.02
2022-08-05T17:33:23.119Z,29.88
2022-08-05T17:37:29.496Z,29.72
2022-08-05T17:41:22.948Z,29.63
2022-08-05T17:45:20.491Z,29.48
2022-08-05T17:49:04.329Z,29.34
2022-08-05T17:52:53.266Z,29.25
2022-08-05T17:56:38.948Z,29.16
2022-08-05T18:00:21.783Z,29.03
2022-08-05T18:04:13.602Z,28.88
2022-08-05T18:08:04.300Z,28.84
2022-08-05T18:11:52.408Z,28.72
2022-08-05T18:15:38.506Z,28.63
2022-08-05T18:19:22.843Z,28.54
2022-08-05T18:23:11.243Z,28.46
2022-08-05T18:26:56.544Z,28.37
2022-08-05T18:30:41.103Z,28.30
2022-08-05T18:34:23.858Z,28.21
2022-08-05T18:38:25.929Z,28.18
2022-08-05T18:42:11.503Z,28.09
2022-08-05T18:45:55.355Z,28.01
2022-08-05T18:49:58.227Z,27.98
2022-08-05T18:53:50.181Z,27.93
2022-08-05T18:57:43.359Z,27.86
2022-08-05T19:01:48.018Z,27.78
2022-08-05T19:06:12.512Z,27.76
2022-08-05T19:09:41.304Z,27.82
2022-08-05T19:13:29.251Z,27.32
2022-08-05T19:17:12.960Z,26.33
2022-08-05T19:20:56.080Z,24.15
2022-08-05T19:24:39.231Z,22.39
2022-08-05T19:28:41.824Z,21.44
2022-08-05T19:32:26.140Z,20.74
2022-08-05T19:36:10.795Z,20.61
2022-08-05T19:39:58.192Z,20.52
2022-08-05T19:44:05.346Z,20.67
2022-08-05T19:47:45.573Z,20.87
2022-08-05T19:52:06.062Z,20.99
2022-08-05T19:56:12.446Z,21.09
2022-08-05T19:59:56.406Z,21.17
2022-08-05T20:03:41.215Z,21.28
2022-08-05T20:07:46.345Z,21.35
2022-08-05T20:11:28.095Z,21.50
2022-08-05T20:15:12.690Z,21.57
2022-08-05T20:18:59.033Z,21.64
2022-08-05T20:22:44.224Z,21.70
2022-08-05T20:26:29.731Z,21.61
2022-08-05T20:30:14.538Z,21.66
2022-08-05T20:34:01.050Z,21.76
2022-08-05T20:38:05.637Z,21.87
2022-08-05T20:41:48.176Z,21.96
2022-08-05T20:45:56.690Z,21.97
2022-08-05T20:49:39.342Z,22.06
2022-08-05T20:53:36.494Z,22.01
2022-08-05T20:57:42.096Z,21.56
2022-08-05T21:01:37.477Z,21.37
2022-08-05T21:05:22.085Z,21.12
2022-08-05T21:09:05.920Z,21.03
2022-08-05T21:12:57.953Z,21.03
2022-08-05T21:16:53.378Z,21.07
2022-08-05T21:20:36.329Z,21.10
2022-08-05T21:24:19.546Z,21.10
2022-08-05T21:28:03.377Z,21.12
2022-08-05T21:31:46.279Z,21.10
2022-08-05T21:35:43.835Z,20.94
2022-08-05T21:39:40.386Z,20.67
2022-08-05T21:43:24.692Z,20.37
2022-08-05T21:47:32.724Z,20.10
2022-08-05T21:51:25.179Z,20.05
2022-08-05T21:55:15.035Z,20.20
2022-08-05T21:58:58.050Z,20.29
2022-08-05T22:02:42.493Z,20.31
2022-08-05T22:06:34.815Z,20.21
2022-08-05T22:10:26.561Z,20.12
2022-08-05T22:14:33.536Z,20.10
2022-08-05T22:18:15.179Z,20.18
2022-08-05T22:22:03.862Z,20.28
2022-08-05T22:26:10.334Z,20.33
2022-08-05T22:29:54.439Z,20.32
2022-08-05T22:33:57.387Z,20.28
2022-08-05T22:37:58.284Z,20.22
2022-08-05T22:42:10.875Z,20.20
2022-08-05T22:45:46.396Z,20.19
2022-08-05T22:50:19.892Z,20.22
2022-08-05T22:53:35.629Z,20.22
2022-08-05T22:57:18.858Z,20.24
2022-08-05T23:01:01.643Z,20.21
2022-08-05T23:04:52.080Z,20.14
2022-08-05T23:08:39.259Z,20.10
2022-08-05T23:12:24.457Z,20.01
2022-08-05T23:16:07.403Z,19.96
2022-08-05T23:19:56.203Z,19.88
2022-08-05T23:23:40.698Z,19.78
2022-08-05T23:27:24.046Z,19.61
2022-08-05T23:31:16.953Z,19.62
2022-08-05T23:35:00.519Z,19.54
2022-08-05T23:38:44.798Z,19.53
2022-08-05T23:42:29.230Z,19.38
2022-08-05T23:46:19.618Z,19.29
2022-08-05T23:50:09.560Z,19.11
2022-08-05T23:53:53.959Z,19.10
2022-08-05T23:57:44.021Z,19.01
